PDT,Max TemperatureF,Mean TemperatureF,Min TemperatureF,Max Dew PointF,MeanDew PointF,Min DewpointF,Max Humidity, Mean Humidity, Min Humidity, Max Sea Level PressureIn, Mean Sea Level PressureIn, Min Sea Level PressureIn, Max VisibilityMiles, Mean VisibilityMiles, Min VisibilityMiles, Max Wind SpeedMPH, Mean Wind SpeedMPH, Max Gust SpeedMPH,PrecipitationIn, CloudCover, Events, WindDirDegrees
2012-10-1,96,89,82,45,39,35,22,19,13,29.90,29.86,29.81,10,10,10,14,8,22,0.00,0,,308
2012-10-2,95,86,79,46,39,34,24,19,15,29.83,29.81,29.79,10,10,10,13,10,,0.00,0,,281
2012-10-3,82,68,55,57,48,33,100,61,18,30.07,29.97,29.83,10,6,0,10,6,,0.00,2,Fog,237
2012-10-4,68,60,55,57,56,55,100,89,66,30.15,30.08,30.01,10,5,0,15,5,,0.00,6,Fog,247
2012-10-5,70,62,55,57,56,51,100,86,53,30.10,30.04,29.95,10,5,0,10,3,,0.00,3,Fog,261
2012-10-6,75,66,60,61,55,49,94,69,42,29.96,29.93,29.88,10,9,2,12,7,,0.00,0,,273
2012-10-7,72,65,59,61,59,52,97,89,65,29.98,29.93,29.87,10,4,0,13,6,,0.00,4,Fog,241
2012-10-8,68,62,57,59,57,51,100,88,61,30.01,29.97,29.91,10,6,0,15,8,,0.00,4,Fog,247
2012-10-9,66,60,57,58,57,54,100,89,73,30.03,29.99,29.94,10,6,0,14,7,,0.00,5,Fog,253
2012-10-10,62,60,57,56,54,52,96,83,72,30.03,29.98,29.92,10,9,1,14,10,20,0.01,6,Rain,257
2012-10-11,60,56,53,54,51,46,94,83,72,29.97,29.93,29.89,10,9,1,15,5,,0.72,6,Rain,252
2012-10-12,62,57,53,54,53,50,94,85,67,30.15,30.06,29.99,10,10,2,14,6,,0.10,4,Rain,266
2012-10-13,72,60,55,57,54,47,97,81,42,30.20,30.13,30.05,10,10,10,8,5,,0.00,1,,274
2012-10-14,86,76,68,57,44,35,49,32,20,30.06,29.99,29.93,10,10,10,12,4,,0.00,0,,336
2012-10-15,84,80,75,56,42,37,39,26,21,29.91,29.87,29.82,10,10,10,8,5,,0.00,0,,290
2012-10-16,84,78,73,43,36,30,27,22,16,29.84,29.78,29.72,10,10,10,10,4,,0.00,0,,285
2012-10-17,89,80,73,50,41,29,32,23,15,29.81,29.75,29.71,10,10,10,12,3,,0.00,0,,17
2012-10-18,82,73,64,63,57,35,94,72,18,30.08,29.97,29.82,10,10,10,24,13,33,0.00,1,,170
2012-10-19,64,62,59,61,60,57,100,94,84,30.05,29.99,29.90,10,2,0,16,8,,0.06,6,Fog,260
2012-10-20,62,59,57,59,58,57,100,95,88,29.94,29.89,29.83,10,3,0,7,3,,0.00,8,Fog-Rain,169
2012-10-21,62,58,55,59,56,53,100,95,87,29.95,29.91,29.85,10,4,0,10,3,,0.06,8,Fog-Rain,247
2012-10-22,60,56,54,54,52,48,97,84,74,30.03,29.99,29.91,10,10,6,14,8,,0.00,6,,244
2012-10-23,63,56,51,55,51,45,100,83,55,30.02,29.98,29.95,10,8,0,21,10,25,0.01,4,Fog-Rain,266
2012-10-24,63,57,52,52,48,40,88,72,47,30.07,30.03,29.97,10,10,10,25,16,22,0.00,1,,299
2012-10-25,72,62,55,52,44,36,87,52,30,30.08,30.01,29.94,10,10,10,20,15,28,0.00,0,,306
2012-10-26,77,70,64,44,29,20,48,23,15,30.01,29.95,29.90,10,10,10,15,10,,0.00,0,,34
2012-10-27,84,74,66,31,21,11,18,13,10,29.89,29.86,29.81,10,10,10,12,7,,0.00,0,,41
2012-10-28,80,76,71,39,23,10,25,15,9,29.99,29.91,29.86,10,10,10,10,3,,0.00,0,,241
2012-10-29,78,70,66,41,22,13,29,16,11,30.06,30.02,29.99,10,10,10,8,4,,0.00,0,,281
2012-10-30,72,66,61,52,31,15,59,29,12,30.04,30.00,29.96,10,10,10,8,2,,0.00,0,,241
2012-10-31,68,58,51,54,50,19,100,85,16,30.08,30.02,29.96,10,5,0,13,4,,0.00,3,Fog,233